sensor_id;sensor_type;location;lat;lon;timestamp;pressure;altitude;pressure_sealevel;temperature;humidity
36014;BME280;22275;43.208;27.620;2023-05-02T00:01:47;101874.69;;;16.44;100.00
36014;BME280;22275;43.208;27.620;2023-05-02T00:04:16;101884.13;;;16.09;100.00
36014;BME280;22275;43.208;27.620;2023-05-02T00:06:44;101878.03;;;16.48;100.00
36014;BME280;22275;43.208;27.620;2023-05-02T00:09:12;101877.19;;;16.87;100.00
36014;BME280;22275;43.208;27.620;2023-05-02T00:11:40;101876.13;;;16.77;100.00
36014;BME280;22275;43.208;27.620;2023-05-02T00:14:09;101873.88;;;16.83;100.00
36014;BME280;22275;43.208;27.620;2023-05-02T00:16:37;101880.47;;;16.78;100.00
36014;BME280;22275;43.208;27.620;2023-05-02T00:19:06;101881.03;;;16.83;100.00
36014;BME280;22275;43.208;27.620;2023-05-02T00:21:36;101885.66;;;16.66;100.00
36014;BME280;22275;43.208;27.620;2023-05-02T00:24:04;101886.16;;;16.86;100.00
36014;BME280;22275;43.208;27.620;2023-05-02T00:26:32;101883.13;;;16.78;100.00
36014;BME280;22275;43.208;27.620;2023-05-02T00:28:59;101888.44;;;16.78;100.00
36014;BME280;22275;43.208;27.620;2023-05-02T00:31:29;101884.44;;;16.85;100.00
36014;BME280;22275;43.208;27.620;2023-05-02T00:33:56;101886.56;;;16.92;100.00
36014;BME280;22275;43.208;27.620;2023-05-02T00:36:24;101881.50;;;17.14;100.00
36014;BME280;22275;43.208;27.620;2023-05-02T00:38:52;101888.66;;;17.14;100.00
36014;BME280;22275;43.208;27.620;2023-05-02T00:41:19;101890.25;;;17.16;100.00
36014;BME280;22275;43.208;27.620;2023-05-02T00:43:47;101887.66;;;17.15;100.00
36014;BME280;22275;43.208;27.620;2023-05-02T00:46:14;101895.81;;;16.74;100.00
36014;BME280;22275;43.208;27.620;2023-05-02T00:48:43;101893.34;;;16.71;100.00
36014;BME280;22275;43.208;27.620;2023-05-02T00:51:11;101892.22;;;16.88;100.00
36014;BME280;22275;43.208;27.620;2023-05-02T00:53:39;101883.63;;;16.97;100.00
36014;BME280;22275;43.208;27.620;2023-05-02T00:56:08;101891.53;;;17.11;100.00
36014;BME280;22275;43.208;27.620;2023-05-02T00:58:36;101895.13;;;17.10;100.00
36014;BME280;22275;43.208;27.620;2023-05-02T01:01:13;101896.16;;;16.82;100.00
36014;BME280;22275;43.208;27.620;2023-05-02T01:03:54;101906.63;;;15.89;100.00
36014;BME280;22275;43.208;27.620;2023-05-02T01:06:34;101906.03;;;15.28;100.00
36014;BME280;22275;43.208;27.620;2023-05-02T01:09:14;101899.47;;;15.33;100.00
36014;BME280;22275;43.208;27.620;2023-05-02T01:11:47;101900.44;;;15.18;100.00
36014;BME280;22275;43.208;27.620;2023-05-02T01:14:19;101899.94;;;15.12;100.00
36014;BME280;22275;43.208;27.620;2023-05-02T01:16:47;101898.53;;;14.61;100.00
36014;BME280;22275;43.208;27.620;2023-05-02T01:19:25;101896.22;;;15.00;100.00
36014;BME280;22275;43.208;27.620;2023-05-02T01:21:56;101890.41;;;15.37;100.00
36014;BME280;22275;43.208;27.620;2023-05-02T01:24:27;101886.53;;;14.69;100.00
36014;BME280;22275;43.208;27.620;2023-05-02T01:27:06;101892.22;;;15.07;100.00
36014;BME280;22275;43.208;27.620;2023-05-02T01:29:41;101896.22;;;15.00;100.00
36014;BME280;22275;43.208;27.620;2023-05-02T01:32:11;101894.19;;;14.89;100.00
36014;BME280;22275;43.208;27.620;2023-05-02T01:34:42;101892.22;;;15.07;100.00
36014;BME280;22275;43.208;27.620;2023-05-02T01:37:12;101892.72;;;15.14;100.00
36014;BME280;22275;43.208;27.620;2023-05-02T01:39:42;101891.88;;;15.13;100.00
36014;BME280;22275;43.208;27.620;2023-05-02T01:42:11;101890.75;;;15.17;100.00
36014;BME280;22275;43.208;27.620;2023-05-02T01:44:42;101886.38;;;15.16;100.00
36014;BME280;22275;43.208;27.620;2023-05-02T01:47:09;101889.81;;;15.18;100.00
36014;BME280;22275;43.208;27.620;2023-05-02T01:49:40;101887.72;;;15.23;100.00
36014;BME280;22275;43.208;27.620;2023-05-02T01:52:11;101892.84;;;15.26;100.00
36014;BME280;22275;43.208;27.620;2023-05-02T01:54:40;101885.81;;;15.25;100.00
36014;BME280;22275;43.208;27.620;2023-05-02T01:57:10;101886.59;;;15.41;100.00
36014;BME280;22275;43.208;27.620;2023-05-02T01:59:41;101886.31;;;15.32;100.00
36014;BME280;22275;43.208;27.620;2023-05-02T02:02:10;101891.28;;;14.49;100.00
36014;BME280;22275;43.208;27.620;2023-05-02T02:04:40;101891.75;;;15.01;100.00
36014;BME280;22275;43.208;27.620;2023-05-02T02:07:12;101891.44;;;15.35;100.00
36014;BME280;22275;43.208;27.620;2023-05-02T02:09:40;101894.47;;;15.29;100.00
36014;BME280;22275;43.208;27.620;2023-05-02T02:12:11;101894.72;;;15.24;100.00
36014;BME280;22275;43.208;27.620;2023-05-02T02:14:48;101899.97;;;15.40;100.00
36014;BME280;22275;43.208;27.620;2023-05-02T02:17:26;101900.97;;;15.09;100.00
36014;BME280;22275;43.208;27.620;2023-05-02T02:20:00;101909.50;;;14.55;100.00
36014;BME280;22275;43.208;27.620;2023-05-02T02:22:29;101895.41;;;14.84;100.00
36014;BME280;22275;43.208;27.620;2023-05-02T02:25:02;101907.03;;;15.11;100.00
36014;BME280;22275;43.208;27.620;2023-05-02T02:27:31;101908.28;;;15.20;100.00
36014;BME280;22275;43.208;27.620;2023-05-02T02:30:00;101904.22;;;15.28;100.00
36014;BME280;22275;43.208;27.620;2023-05-02T02:32:28;101912.13;;;14.23;100.00
36014;BME280;22275;43.208;27.620;2023-05-02T02:34:55;101911.78;;;13.50;100.00
36014;BME280;22275;43.208;27.620;2023-05-02T02:37:29;101912.25;;;13.41;100.00
36014;BME280;22275;43.208;27.620;2023-05-02T02:40:04;101908.34;;;13.48;100.00
36014;BME280;22275;43.208;27.620;2023-05-02T02:42:38;101910.34;;;14.24;100.00
36014;BME280;22275;43.208;27.620;2023-05-02T02:45:26;101914.16;;;13.87;100.00
36014;BME280;22275;43.208;27.620;2023-05-02T02:48:04;101907.91;;;13.88;100.00
36014;BME280;22275;43.208;27.620;2023-05-02T02:50:37;101911.72;;;13.67;100.00
36014;BME280;22275;43.208;27.620;2023-05-02T02:53:17;101909.91;;;13.85;100.00
36014;BME280;22275;43.208;27.620;2023-05-02T02:55:51;101910.53;;;14.36;100.00
36014;BME280;22275;43.208;27.620;2023-05-02T02:58:29;101914.78;;;14.55;100.00
36014;BME280;22275;43.208;27.620;2023-05-02T03:01:02;101909.66;;;14.52;100.00
36014;BME280;22275;43.208;27.620;2023-05-02T03:03:31;101918.22;;;14.57;100.00
36014;BME280;22275;43.208;27.620;2023-05-02T03:06:00;101914.34;;;14.78;100.00
36014;BME280;22275;43.208;27.620;2023-05-02T03:08:38;101929.28;;;13.01;100.00
36014;BME280;22275;43.208;27.620;2023-05-02T03:11:06;101922.50;;;13.14;100.00
36014;BME280;22275;43.208;27.620;2023-05-02T03:13:35;101931.09;;;13.17;100.00
36014;BME280;22275;43.208;27.620;2023-05-02T03:16:32;101927.81;;;13.47;100.00
36014;BME280;22275;43.208;27.620;2023-05-02T03:19:00;101939.19;;;13.32;100.00
36014;BME280;22275;43.208;27.620;2023-05-02T03:21:27;101927.56;;;13.84;100.00
36014;BME280;22275;43.208;27.620;2023-05-02T03:23:57;101935.28;;;14.20;100.00
36014;BME280;22275;43.208;27.620;2023-05-02T03:26:25;101934.00;;;14.11;100.00
36014;BME280;22275;43.208;27.620;2023-05-02T03:28:53;101937.91;;;13.04;100.00
36014;BME280;22275;43.208;27.620;2023-05-02T03:31:21;101933.91;;;13.14;100.00
36014;BME280;22275;43.208;27.620;2023-05-02T03:33:50;101941.31;;;12.89;100.00
36014;BME280;22275;43.208;27.620;2023-05-02T03:36:17;101945.59;;;13.28;100.00
36014;BME280;22275;43.208;27.620;2023-05-02T03:38:46;101936.00;;;13.42;100.00
36014;BME280;22275;43.208;27.620;2023-05-02T03:41:14;101949.38;;;13.56;100.00
36014;BME280;22275;43.208;27.620;2023-05-02T03:43:41;101956.34;;;13.57;100.00
36014;BME280;22275;43.208;27.620;2023-05-02T03:46:09;101967.06;;;13.39;100.00
36014;BME280;22275;43.208;27.620;2023-05-02T03:48:37;101971.72;;;13.83;100.00
36014;BME280;22275;43.208;27.620;2023-05-02T03:51:07;101974.66;;;14.27;100.00
36014;BME280;22275;43.208;27.620;2023-05-02T03:53:35;101976.16;;;14.31;100.00
36014;BME280;22275;43.208;27.620;2023-05-02T03:56:03;101974.78;;;14.42;100.00
36014;BME280;22275;43.208;27.620;2023-05-02T03:58:34;101978.88;;;14.14;100.00
36014;BME280;22275;43.208;27.620;2023-05-02T04:01:02;101980.44;;;14.18;100.00
36014;BME280;22275;43.208;27.620;2023-05-02T04:03:30;101984.91;;;14.33;100.00
36014;BME280;22275;43.208;27.620;2023-05-02T04:05:57;101988.94;;;14.56;100.00
36014;BME280;22275;43.208;27.620;2023-05-02T04:08:26;101985.56;;;15.00;100.00
36014;BME280;22275;43.208;27.620;2023-05-02T04:10:54;101974.97;;;15.73;100.00
36014;BME280;22275;43.208;27.620;2023-05-02T04:13:21;101983.44;;;15.94;100.00
36014;BME280;22275;43.208;27.620;2023-05-02T04:15:49;101981.25;;;16.15;100.00
36014;BME280;22275;43.208;27.620;2023-05-02T04:18:16;101983.22;;;16.25;100.00
36014;BME280;22275;43.208;27.620;2023-05-02T04:20:44;101979.84;;;16.50;100.00
36014;BME280;22275;43.208;27.620;2023-05-02T04:23:11;101983.19;;;16.53;100.00
36014;BME280;22275;43.208;27.620;2023-05-02T04:25:40;101984.22;;;16.65;100.00
36014;BME280;22275;43.208;27.620;2023-05-02T04:28:08;101980.50;;;16.67;100.00
36014;BME280;22275;43.208;27.620;2023-05-02T04:30:36;101978.28;;;16.74;100.00
36014;BME280;22275;43.208;27.620;2023-05-02T04:33:03;101984.81;;;16.83;100.00
36014;BME280;22275;43.208;27.620;2023-05-02T04:35:31;101978.59;;;16.96;100.00
36014;BME280;22275;43.208;27.620;2023-05-02T04:37:59;101974.34;;;17.06;100.00
36014;BME280;22275;43.208;27.620;2023-05-02T04:40:26;101984.84;;;17.22;100.00
36014;BME280;22275;43.208;27.620;2023-05-02T04:42:56;101974.19;;;17.35;100.00
36014;BME280;22275;43.208;27.620;2023-05-02T04:45:24;101975.69;;;17.51;100.00
36014;BME280;22275;43.208;27.620;2023-05-02T04:47:52;101984.06;;;17.59;100.00
36014;BME280;22275;43.208;27.620;2023-05-02T04:50:20;101988.94;;;17.53;100.00
36014;BME280;22275;43.208;27.620;2023-05-02T04:52:48;101988.53;;;17.71;100.00
36014;BME280;22275;43.208;27.620;2023-05-02T04:55:16;101986.63;;;17.61;100.00
36014;BME280;22275;43.208;27.620;2023-05-02T04:57:43;101990.53;;;15.93;100.00
36014;BME280;22275;43.208;27.620;2023-05-02T05:00:14;101993.34;;;16.88;100.00
36014;BME280;22275;43.208;27.620;2023-05-02T05:02:41;101994.13;;;16.21;100.00
36014;BME280;22275;43.208;27.620;2023-05-02T05:05:09;101995.84;;;15.93;100.00
36014;BME280;22275;43.208;27.620;2023-05-02T05:07:36;101995.00;;;15.93;100.00
36014;BME280;22275;43.208;27.620;2023-05-02T05:10:05;101996.78;;;15.92;100.00
36014;BME280;22275;43.208;27.620;2023-05-02T05:12:33;101995.34;;;16.84;100.00
36014;BME280;22275;43.208;27.620;2023-05-02T05:15:00;101996.31;;;16.28;100.00
36014;BME280;22275;43.208;27.620;2023-05-02T05:17:29;102002.78;;;15.96;100.00
36014;BME280;22275;43.208;27.620;2023-05-02T05:19:57;102010.16;;;16.33;100.00
36014;BME280;22275;43.208;27.620;2023-05-02T05:22:25;101994.59;;;16.27;100.00
36014;BME280;22275;43.208;27.620;2023-05-02T05:24:52;101998.75;;;16.45;100.00
36014;BME280;22275;43.208;27.620;2023-05-02T05:27:20;102002.91;;;17.17;100.00
36014;BME280;22275;43.208;27.620;2023-05-02T05:29:47;102000.44;;;17.53;100.00
36014;BME280;22275;43.208;27.620;2023-05-02T05:32:15;101998.22;;;17.08;100.00
36014;BME280;22275;43.208;27.620;2023-05-02T05:34:44;101987.47;;;17.61;100.00
36014;BME280;22275;43.208;27.620;2023-05-02T05:37:13;101991.16;;;17.46;100.00
36014;BME280;22275;43.208;27.620;2023-05-02T05:39:40;101991.84;;;17.62;100.00
36014;BME280;22275;43.208;27.620;2023-05-02T05:42:07;101990.38;;;17.32;100.00
36014;BME280;22275;43.208;27.620;2023-05-02T05:44:35;102000.28;;;17.56;100.00
36014;BME280;22275;43.208;27.620;2023-05-02T05:47:03;102003.22;;;18.27;100.00
36014;BME280;22275;43.208;27.620;2023-05-02T05:49:31;101991.56;;;18.77;100.00
36014;BME280;22275;43.208;27.620;2023-05-02T05:52:02;101999.41;;;18.19;100.00
36014;BME280;22275;43.208;27.620;2023-05-02T05:54:30;101997.56;;;18.19;100.00
36014;BME280;22275;43.208;27.620;2023-05-02T05:56:57;102005.66;;;18.79;100.00
36014;BME280;22275;43.208;27.620;2023-05-02T05:59:24;102002.34;;;18.52;100.00
36014;BME280;22275;43.208;27.620;2023-05-02T06:01:52;102001.47;;;19.12;100.00
36014;BME280;22275;43.208;27.620;2023-05-02T06:04:20;101998.47;;;19.62;100.00
36014;BME280;22275;43.208;27.620;2023-05-02T06:06:48;101988.13;;;20.26;100.00
36014;BME280;22275;43.208;27.620;2023-05-02T06:09:17;101995.34;;;20.24;100.00
36014;BME280;22275;43.208;27.620;2023-05-02T06:11:45;101999.38;;;20.62;100.00
36014;BME280;22275;43.208;27.620;2023-05-02T06:14:12;101998.09;;;20.78;100.00
36014;BME280;22275;43.208;27.620;2023-05-02T06:16:41;101996.19;;;21.00;100.00
36014;BME280;22275;43.208;27.620;2023-05-02T06:19:08;101987.91;;;21.03;100.00
36014;BME280;22275;43.208;27.620;2023-05-02T06:21:36;101990.66;;;21.24;100.00
36014;BME280;22275;43.208;27.620;2023-05-02T06:24:04;101988.19;;;21.32;100.00
36014;BME280;22275;43.208;27.620;2023-05-02T06:26:33;101983.41;;;21.36;100.00
36014;BME280;22275;43.208;27.620;2023-05-02T06:29:01;101987.94;;;21.56;100.00
36014;BME280;22275;43.208;27.620;2023-05-02T06:31:28;101978.97;;;21.87;100.00
36014;BME280;22275;43.208;27.620;2023-05-02T06:33:56;101980.00;;;21.75;100.00
36014;BME280;22275;43.208;27.620;2023-05-02T06:36:23;101984.94;;;22.00;97.06
36014;BME280;22275;43.208;27.620;2023-05-02T06:38:50;101985.22;;;22.27;95.17
36014;BME280;22275;43.208;27.620;2023-05-02T06:41:18;101981.94;;;22.33;93.73
36014;BME280;22275;43.208;27.620;2023-05-02T06:43:47;101975.78;;;22.43;89.18
36014;BME280;22275;43.208;27.620;2023-05-02T06:46:14;101979.59;;;22.40;87.59
36014;BME280;22275;43.208;27.620;2023-05-02T06:48:43;101983.38;;;22.77;87.27
36014;BME280;22275;43.208;27.620;2023-05-02T06:51:13;101985.66;;;22.92;88.53
36014;BME280;22275;43.208;27.620;2023-05-02T06:53:40;101987.34;;;23.02;89.07
36014;BME280;22275;43.208;27.620;2023-05-02T06:56:08;101981.53;;;22.97;86.36
36014;BME280;22275;43.208;27.620;2023-05-02T06:58:36;101978.84;;;23.16;81.23
36014;BME280;22275;43.208;27.620;2023-05-02T07:01:06;101982.78;;;23.70;82.67
36014;BME280;22275;43.208;27.620;2023-05-02T07:03:34;101969.66;;;23.94;79.76
36014;BME280;22275;43.208;27.620;2023-05-02T07:06:02;101973.63;;;23.90;76.91
36014;BME280;22275;43.208;27.620;2023-05-02T07:08:30;101978.53;;;24.14;75.80
36014;BME280;22275;43.208;27.620;2023-05-02T07:10:58;101980.34;;;24.23;78.03
36014;BME280;22275;43.208;27.620;2023-05-02T07:13:25;101975.41;;;24.09;77.51
36014;BME280;22275;43.208;27.620;2023-05-02T07:15:52;101976.75;;;24.32;74.84
36014;BME280;22275;43.208;27.620;2023-05-02T07:18:21;101972.06;;;24.79;71.43
36014;BME280;22275;43.208;27.620;2023-05-02T07:20:49;101977.56;;;25.04;74.52
36014;BME280;22275;43.208;27.620;2023-05-02T07:23:16;101960.84;;;25.44;66.33
36014;BME280;22275;43.208;27.620;2023-05-02T07:25:44;101965.22;;;25.63;65.92
36014;BME280;22275;43.208;27.620;2023-05-02T07:28:11;101966.03;;;25.55;56.81
36014;BME280;22275;43.208;27.620;2023-05-02T07:30:39;101962.97;;;25.76;60.28
36014;BME280;22275;43.208;27.620;2023-05-02T07:33:06;101963.94;;;26.01;58.32
36014;BME280;22275;43.208;27.620;2023-05-02T07:35:35;101962.34;;;26.16;54.69
36014;BME280;22275;43.208;27.620;2023-05-02T07:38:02;101963.56;;;26.21;52.95
36014;BME280;22275;43.208;27.620;2023-05-02T07:40:30;101972.56;;;26.38;52.83
36014;BME280;22275;43.208;27.620;2023-05-02T07:42:59;101972.56;;;26.38;53.95
36014;BME280;22275;43.208;27.620;2023-05-02T07:45:27;101968.47;;;26.26;54.10
36014;BME280;22275;43.208;27.620;2023-05-02T07:47:54;101961.38;;;26.25;49.85
36014;BME280;22275;43.208;27.620;2023-05-02T07:50:22;101959.28;;;26.69;49.98
36014;BME280;22275;43.208;27.620;2023-05-02T07:52:51;101957.97;;;26.65;48.83
36014;BME280;22275;43.208;27.620;2023-05-02T07:55:18;101956.81;;;26.83;47.48
36014;BME280;22275;43.208;27.620;2023-05-02T07:57:46;101960.91;;;26.88;46.15
36014;BME280;22275;43.208;27.620;2023-05-02T08:00:13;101966.28;;;26.79;45.10
36014;BME280;22275;43.208;27.620;2023-05-02T08:02:41;101962.25;;;27.32;46.03
36014;BME280;22275;43.208;27.620;2023-05-02T08:05:09;101952.47;;;27.47;46.17
36014;BME280;22275;43.208;27.620;2023-05-02T08:07:36;101962.94;;;27.18;46.27
36014;BME280;22275;43.208;27.620;2023-05-02T08:10:07;101956.06;;;26.65;45.41
36014;BME280;22275;43.208;27.620;2023-05-02T08:12:37;101967.19;;;26.54;44.12
36014;BME280;22275;43.208;27.620;2023-05-02T08:15:06;101966.22;;;26.63;45.57
36014;BME280;22275;43.208;27.620;2023-05-02T08:17:34;101970.53;;;26.98;44.15
36014;BME280;22275;43.208;27.620;2023-05-02T08:20:01;101960.19;;;26.94;45.62
36014;BME280;22275;43.208;27.620;2023-05-02T08:22:28;101959.88;;;26.89;46.76
36014;BME280;22275;43.208;27.620;2023-05-02T08:24:56;101965.78;;;26.92;44.56
36014;BME280;22275;43.208;27.620;2023-05-02T08:27:24;101954.28;;;27.30;44.52
36014;BME280;22275;43.208;27.620;2023-05-02T08:29:52;101965.97;;;27.07;45.98
36014;BME280;22275;43.208;27.620;2023-05-02T08:32:19;101951.75;;;27.37;46.88
36014;BME280;22275;43.208;27.620;2023-05-02T08:34:47;101958.88;;;26.98;46.20
36014;BME280;22275;43.208;27.620;2023-05-02T08:37:14;101958.00;;;27.37;47.22
36014;BME280;22275;43.208;27.620;2023-05-02T08:39:43;101959.53;;;27.64;43.79
36014;BME280;22275;43.208;27.620;2023-05-02T08:42:10;101951.66;;;27.93;43.27
36014;BME280;22275;43.208;27.620;2023-05-02T08:44:39;101945.13;;;28.19;42.90
36014;BME280;22275;43.208;27.620;2023-05-02T08:47:10;101933.41;;;28.57;41.71
36014;BME280;22275;43.208;27.620;2023-05-02T08:49:39;101934.41;;;28.64;41.51
36014;BME280;22275;43.208;27.620;2023-05-02T08:52:06;101942.06;;;28.52;41.28
36014;BME280;22275;43.208;27.620;2023-05-02T08:54:36;101936.97;;;28.27;39.47
36014;BME280;22275;43.208;27.620;2023-05-02T08:57:03;101943.84;;;27.44;42.25
36014;BME280;22275;43.208;27.620;2023-05-02T08:59:31;101943.66;;;27.29;41.35
36014;BME280;22275;43.208;27.620;2023-05-02T09:02:00;101941.78;;;27.46;42.03
36014;BME280;22275;43.208;27.620;2023-05-02T09:04:31;101940.22;;;27.75;43.73
36014;BME280;22275;43.208;27.620;2023-05-02T09:07:00;101934.78;;;27.67;43.39
36014;BME280;22275;43.208;27.620;2023-05-02T09:09:28;101938.56;;;27.34;43.03
36014;BME280;22275;43.208;27.620;2023-05-02T09:11:57;101931.16;;;27.04;45.28
36014;BME280;22275;43.208;27.620;2023-05-02T09:14:24;101945.00;;;26.85;44.09
36014;BME280;22275;43.208;27.620;2023-05-02T09:16:57;101932.38;;;26.51;43.23
36014;BME280;22275;43.208;27.620;2023-05-02T09:19:26;101937.56;;;26.95;43.67
36014;BME280;22275;43.208;27.620;2023-05-02T09:21:58;101937.81;;;26.59;42.67
36014;BME280;22275;43.208;27.620;2023-05-02T09:24:25;101921.56;;;26.35;42.44
36014;BME280;22275;43.208;27.620;2023-05-02T09:26:55;101924.03;;;26.78;43.05
36014;BME280;22275;43.208;27.620;2023-05-02T09:29:22;101918.63;;;26.95;41.92
36014;BME280;22275;43.208;27.620;2023-05-02T09:31:49;101923.34;;;27.09;42.71
36014;BME280;22275;43.208;27.620;2023-05-02T09:34:19;101925.72;;;26.79;41.37
36014;BME280;22275;43.208;27.620;2023-05-02T09:36:47;101928.28;;;27.21;42.62
36014;BME280;22275;43.208;27.620;2023-05-02T09:39:16;101926.22;;;27.31;42.52
36014;BME280;22275;43.208;27.620;2023-05-02T09:41:44;101938.06;;;27.14;41.66
36014;BME280;22275;43.208;27.620;2023-05-02T09:44:12;101934.53;;;26.90;40.76
36014;BME280;22275;43.208;27.620;2023-05-02T09:46:40;101926.94;;;27.42;39.32
36014;BME280;22275;43.208;27.620;2023-05-02T09:49:07;101932.81;;;27.29;41.79
36014;BME280;22275;43.208;27.620;2023-05-02T09:51:35;101938.25;;;27.13;41.40
36014;BME280;22275;43.208;27.620;2023-05-02T09:54:03;101938.22;;;27.05;42.36
36014;BME280;22275;43.208;27.620;2023-05-02T09:56:30;101922.28;;;26.53;42.60
36014;BME280;22275;43.208;27.620;2023-05-02T09:59:13;101932.44;;;26.75;41.23
36014;BME280;22275;43.208;27.620;2023-05-02T10:01:40;101936.69;;;26.78;43.35
36014;BME280;22275;43.208;27.620;2023-05-02T10:04:08;101927.50;;;26.63;41.37
36014;BME280;22275;43.208;27.620;2023-05-02T10:06:40;101933.47;;;26.82;41.61
36014;BME280;22275;43.208;27.620;2023-05-02T10:09:10;101921.34;;;26.95;39.69
36014;BME280;22275;43.208;27.620;2023-05-02T10:11:37;101924.72;;;27.13;42.79
36014;BME280;22275;43.208;27.620;2023-05-02T10:14:07;101925.66;;;26.71;40.71
36014;BME280;22275;43.208;27.620;2023-05-02T10:16:35;101935.53;;;26.97;41.25
36014;BME280;22275;43.208;27.620;2023-05-02T10:19:05;101929.78;;;27.00;41.48
36014;BME280;22275;43.208;27.620;2023-05-02T10:21:33;101928.88;;;26.67;41.37
36014;BME280;22275;43.208;27.620;2023-05-02T10:24:00;101930.66;;;26.34;41.39
36014;BME280;22275;43.208;27.620;2023-05-02T10:26:29;101924.03;;;26.78;41.53
36014;BME280;22275;43.208;27.620;2023-05-02T10:28:56;101926.00;;;26.76;41.02
36014;BME280;22275;43.208;27.620;2023-05-02T10:31:23;101902.53;;;26.61;42.86
36014;BME280;22275;43.208;27.620;2023-05-02T10:33:51;101923.28;;;26.52;40.64
36014;BME280;22275;43.208;27.620;2023-05-02T10:36:19;101929.97;;;26.90;41.68
36014;BME280;22275;43.208;27.620;2023-05-02T10:38:46;101923.38;;;26.93;40.99
36014;BME280;22275;43.208;27.620;2023-05-02T10:41:14;101933.31;;;26.76;40.84
36014;BME280;22275;43.208;27.620;2023-05-02T10:43:46;101931.41;;;26.68;40.81
36014;BME280;22275;43.208;27.620;2023-05-02T10:46:28;101932.44;;;26.75;40.34
36014;BME280;22275;43.208;27.620;2023-05-02T10:48:59;101912.28;;;26.54;42.57
36014;BME280;22275;43.208;27.620;2023-05-02T10:51:26;101920.09;;;26.65;41.39
36014;BME280;22275;43.208;27.620;2023-05-02T10:53:54;101913.13;;;26.38;41.40
36014;BME280;22275;43.208;27.620;2023-05-02T10:56:22;101916.03;;;26.61;41.07
36014;BME280;22275;43.208;27.620;2023-05-02T10:58:52;101919.91;;;26.42;40.39
36014;BME280;22275;43.208;27.620;2023-05-02T11:01:35;101920.59;;;26.68;41.55
36014;BME280;22275;43.208;27.620;2023-05-02T11:04:08;101919.59;;;26.69;40.71
36014;BME280;22275;43.208;27.620;2023-05-02T11:06:35;101921.97;;;26.72;39.62
36014;BME280;22275;43.208;27.620;2023-05-02T11:11:48;101922.78;;;26.57;40.23
36014;BME280;22275;43.208;27.620;2023-05-02T11:17:06;101919.59;;;26.61;41.66
36014;BME280;22275;43.208;27.620;2023-05-02T11:22:31;101919.97;;;26.91;40.80
36014;BME280;22275;43.208;27.620;2023-05-02T11:24:58;101925.16;;;26.60;40.18
36014;BME280;22275;43.208;27.620;2023-05-02T11:27:38;101917.00;;;26.36;40.27
36014;BME280;22275;43.208;27.620;2023-05-02T11:30:06;101922.41;;;26.02;40.00
36014;BME280;22275;43.208;27.620;2023-05-02T11:35:25;101911.38;;;26.87;40.09
36014;BME280;22275;43.208;27.620;2023-05-02T11:37:55;101910.28;;;26.64;42.43
36014;BME280;22275;43.208;27.620;2023-05-02T11:40:23;101912.88;;;26.98;40.86
36014;BME280;22275;43.208;27.620;2023-05-02T11:42:50;101922.75;;;26.49;41.52
36014;BME280;22275;43.208;27.620;2023-05-02T11:45:17;101912.75;;;26.25;40.38
36014;BME280;22275;43.208;27.620;2023-05-02T11:47:46;101913.91;;;27.21;40.65
36014;BME280;22275;43.208;27.620;2023-05-02T11:50:13;101908.81;;;26.94;40.99
36014;BME280;22275;43.208;27.620;2023-05-02T11:52:43;101914.19;;;26.61;41.73
36014;BME280;22275;43.208;27.620;2023-05-02T11:55:11;101908.59;;;26.63;40.97
36014;BME280;22275;43.208;27.620;2023-05-02T11:57:38;101920.47;;;26.86;39.22
36014;BME280;22275;43.208;27.620;2023-05-02T12:00:08;101919.16;;;26.90;40.50
36014;BME280;22275;43.208;27.620;2023-05-02T12:02:36;101907.53;;;26.40;41.20
36014;BME280;22275;43.208;27.620;2023-05-02T12:05:03;101917.97;;;26.18;40.34
36014;BME280;22275;43.208;27.620;2023-05-02T12:07:35;101923.75;;;25.98;39.70
36014;BME280;22275;43.208;27.620;2023-05-02T12:10:04;101912.09;;;25.97;38.70
36014;BME280;22275;43.208;27.620;2023-05-02T12:12:32;101918.81;;;25.85;39.84
36014;BME280;22275;43.208;27.620;2023-05-02T12:15:02;101907.41;;;26.07;37.76
36014;BME280;22275;43.208;27.620;2023-05-02T12:17:30;101909.28;;;26.07;37.42
36014;BME280;22275;43.208;27.620;2023-05-02T12:19:58;101901.63;;;25.94;39.67
36014;BME280;22275;43.208;27.620;2023-05-02T12:22:26;101907.34;;;26.25;38.48
36014;BME280;22275;43.208;27.620;2023-05-02T12:24:55;101902.09;;;26.23;37.85
36014;BME280;22275;43.208;27.620;2023-05-02T12:27:24;101902.75;;;25.84;38.02
36014;BME280;22275;43.208;27.620;2023-05-02T12:29:52;101899.06;;;26.18;37.24
36014;BME280;22275;43.208;27.620;2023-05-02T12:32:26;101903.63;;;26.34;37.24
36014;BME280;22275;43.208;27.620;2023-05-02T12:34:53;101899.94;;;26.43;38.18
36014;BME280;22275;43.208;27.620;2023-05-02T12:37:22;101895.06;;;26.47;39.94
36014;BME280;22275;43.208;27.620;2023-05-02T12:39:50;101898.13;;;26.02;37.80
36014;BME280;22275;43.208;27.620;2023-05-02T12:42:19;101890.78;;;25.86;37.10
36014;BME280;22275;43.208;27.620;2023-05-02T12:44:50;101895.41;;;26.02;37.57
36014;BME280;22275;43.208;27.620;2023-05-02T12:47:18;101890.28;;;25.83;37.73
36014;BME280;22275;43.208;27.620;2023-05-02T12:49:50;101891.53;;;26.04;39.07
36014;BME280;22275;43.208;27.620;2023-05-02T12:52:18;101889.41;;;25.74;37.12
36014;BME280;22275;43.208;27.620;2023-05-02T12:54:46;101890.72;;;26.12;37.52
36014;BME280;22275;43.208;27.620;2023-05-02T12:57:23;101889.22;;;25.76;37.74